sensor_id;sensor_type;location;lat;lon;timestamp;P1;durP1;ratioP1;P2;durP2;ratioP2
18159;SDS011;9205;52.032;4.314;2024-01-30T00:00:34;4.53;;;4.30;;
18159;SDS011;9205;52.032;4.314;2024-01-30T00:03:01;5.10;;;4.70;;
18159;SDS011;9205;52.032;4.314;2024-01-30T00:05:28;5.13;;;4.73;;
18159;SDS011;9205;52.032;4.314;2024-01-30T00:07:55;4.67;;;4.37;;
18159;SDS011;9205;52.032;4.314;2024-01-30T00:10:23;4.80;;;4.40;;
18159;SDS011;9205;52.032;4.314;2024-01-30T00:12:50;4.50;;;4.30;;
18159;SDS011;9205;52.032;4.314;2024-01-30T00:15:19;4.40;;;4.10;;
18159;SDS011;9205;52.032;4.314;2024-01-30T00:17:46;5.83;;;5.23;;
18159;SDS011;9205;52.032;4.314;2024-01-30T00:20:14;4.47;;;4.27;;
18159;SDS011;9205;52.032;4.314;2024-01-30T00:22:41;5.33;;;4.87;;
18159;SDS011;9205;52.032;4.314;2024-01-30T00:25:08;4.80;;;4.50;;
18159;SDS011;9205;52.032;4.314;2024-01-30T00:27:35;4.80;;;4.47;;
18159;SDS011;9205;52.032;4.314;2024-01-30T00:30:03;5.23;;;4.93;;
18159;SDS011;9205;52.032;4.314;2024-01-30T00:32:33;4.70;;;4.40;;
18159;SDS011;9205;52.032;4.314;2024-01-30T00:35:00;5.73;;;4.80;;
18159;SDS011;9205;52.032;4.314;2024-01-30T00:37:27;4.70;;;4.40;;
18159;SDS011;9205;52.032;4.314;2024-01-30T00:39:56;5.23;;;4.83;;
18159;SDS011;9205;52.032;4.314;2024-01-30T00:42:24;6.87;;;5.87;;
18159;SDS011;9205;52.032;4.314;2024-01-30T00:44:51;5.13;;;4.80;;
18159;SDS011;9205;52.032;4.314;2024-01-30T00:47:18;5.70;;;5.30;;
18159;SDS011;9205;52.032;4.314;2024-01-30T00:49:47;5.40;;;5.00;;
18159;SDS011;9205;52.032;4.314;2024-01-30T00:52:14;5.97;;;5.57;;
18159;SDS011;9205;52.032;4.314;2024-01-30T00:54:42;6.13;;;5.57;;
18159;SDS011;9205;52.032;4.314;2024-01-30T00:57:09;4.90;;;4.60;;
18159;SDS011;9205;52.032;4.314;2024-01-30T00:59:36;5.27;;;4.97;;
18159;SDS011;9205;52.032;4.314;2024-01-30T01:02:03;8.57;;;5.40;;
18159;SDS011;9205;52.032;4.314;2024-01-30T01:04:30;5.13;;;4.70;;
18159;SDS011;9205;52.032;4.314;2024-01-30T01:06:59;5.40;;;4.90;;
18159;SDS011;9205;52.032;4.314;2024-01-30T01:09:26;5.13;;;4.83;;
18159;SDS011;9205;52.032;4.314;2024-01-30T01:11:53;5.90;;;5.40;;
18159;SDS011;9205;52.032;4.314;2024-01-30T01:14:20;5.13;;;4.73;;
18159;SDS011;9205;52.032;4.314;2024-01-30T01:16:47;4.93;;;4.63;;
18159;SDS011;9205;52.032;4.314;2024-01-30T01:19:15;4.60;;;4.30;;
18159;SDS011;9205;52.032;4.314;2024-01-30T01:21:42;5.77;;;5.27;;
18159;SDS011;9205;52.032;4.314;2024-01-30T01:24:10;5.10;;;4.70;;
18159;SDS011;9205;52.032;4.314;2024-01-30T01:26:37;4.90;;;4.60;;
18159;SDS011;9205;52.032;4.314;2024-01-30T01:29:05;4.20;;;4.00;;
18159;SDS011;9205;52.032;4.314;2024-01-30T01:31:35;4.87;;;4.57;;
18159;SDS011;9205;52.032;4.314;2024-01-30T01:34:08;5.53;;;5.13;;
18159;SDS011;9205;52.032;4.314;2024-01-30T01:36:35;4.73;;;4.43;;
18159;SDS011;9205;52.032;4.314;2024-01-30T01:39:03;5.20;;;4.77;;
18159;SDS011;9205;52.032;4.314;2024-01-30T01:41:31;4.93;;;4.60;;
18159;SDS011;9205;52.032;4.314;2024-01-30T01:43:59;5.23;;;4.80;;
18159;SDS011;9205;52.032;4.314;2024-01-30T01:46:27;5.53;;;5.13;;
18159;SDS011;9205;52.032;4.314;2024-01-30T01:48:58;4.77;;;4.47;;
18159;SDS011;9205;52.032;4.314;2024-01-30T01:51:29;4.70;;;4.50;;
18159;SDS011;9205;52.032;4.314;2024-01-30T01:54:00;5.60;;;5.10;;
18159;SDS011;9205;52.032;4.314;2024-01-30T01:56:32;4.83;;;4.47;;
18159;SDS011;9205;52.032;4.314;2024-01-30T01:59:05;5.20;;;4.80;;
18159;SDS011;9205;52.032;4.314;2024-01-30T02:01:33;5.63;;;5.23;;
18159;SDS011;9205;52.032;4.314;2024-01-30T02:04:02;5.50;;;5.00;;
18159;SDS011;9205;52.032;4.314;2024-01-30T02:06:31;5.00;;;4.70;;
18159;SDS011;9205;52.032;4.314;2024-01-30T02:09:00;9.83;;;5.63;;
18159;SDS011;9205;52.032;4.314;2024-01-30T02:11:27;5.87;;;5.13;;
18159;SDS011;9205;52.032;4.314;2024-01-30T02:13:56;4.47;;;4.23;;
18159;SDS011;9205;52.032;4.314;2024-01-30T02:16:28;5.20;;;4.90;;
18159;SDS011;9205;52.032;4.314;2024-01-30T02:18:55;5.30;;;4.93;;
18159;SDS011;9205;52.032;4.314;2024-01-30T02:24:20;5.03;;;4.63;;
18159;SDS011;9205;52.032;4.314;2024-01-30T02:26:47;6.00;;;5.50;;
18159;SDS011;9205;52.032;4.314;2024-01-30T02:29:14;5.07;;;4.77;;
18159;SDS011;9205;52.032;4.314;2024-01-30T02:31:42;5.30;;;4.90;;
18159;SDS011;9205;52.032;4.314;2024-01-30T02:34:11;5.30;;;4.90;;
18159;SDS011;9205;52.032;4.314;2024-01-30T02:36:38;5.23;;;4.87;;
18159;SDS011;9205;52.032;4.314;2024-01-30T02:39:08;4.80;;;4.50;;
18159;SDS011;9205;52.032;4.314;2024-01-30T02:41:36;5.30;;;4.80;;
18159;SDS011;9205;52.032;4.314;2024-01-30T02:44:03;5.53;;;5.03;;
18159;SDS011;9205;52.032;4.314;2024-01-30T02:46:30;5.80;;;5.30;;
18159;SDS011;9205;52.032;4.314;2024-01-30T02:48:58;5.03;;;4.63;;
18159;SDS011;9205;52.032;4.314;2024-01-30T02:51:25;4.93;;;4.63;;
18159;SDS011;9205;52.032;4.314;2024-01-30T02:53:52;6.50;;;5.27;;
18159;SDS011;9205;52.032;4.314;2024-01-30T02:56:19;4.90;;;4.60;;
18159;SDS011;9205;52.032;4.314;2024-01-30T02:58:47;7.27;;;4.90;;
18159;SDS011;9205;52.032;4.314;2024-01-30T03:01:14;5.03;;;4.73;;
18159;SDS011;9205;52.032;4.314;2024-01-30T03:03:42;5.60;;;4.50;;
18159;SDS011;9205;52.032;4.314;2024-01-30T03:06:09;5.40;;;5.00;;
18159;SDS011;9205;52.032;4.314;2024-01-30T03:08:36;4.90;;;4.50;;
18159;SDS011;9205;52.032;4.314;2024-01-30T03:11:03;4.80;;;4.50;;
18159;SDS011;9205;52.032;4.314;2024-01-30T03:13:30;5.40;;;5.00;;
18159;SDS011;9205;52.032;4.314;2024-01-30T03:15:59;4.20;;;4.00;;
18159;SDS011;9205;52.032;4.314;2024-01-30T03:18:26;5.00;;;4.70;;
18159;SDS011;9205;52.032;4.314;2024-01-30T03:20:53;5.40;;;5.00;;
18159;SDS011;9205;52.032;4.314;2024-01-30T03:23:20;5.63;;;5.23;;
18159;SDS011;9205;52.032;4.314;2024-01-30T03:25:47;5.50;;;5.00;;
18159;SDS011;9205;52.032;4.314;2024-01-30T03:28:14;5.00;;;4.60;;
18159;SDS011;9205;52.032;4.314;2024-01-30T03:30:41;4.43;;;4.13;;
18159;SDS011;9205;52.032;4.314;2024-01-30T03:33:10;5.67;;;5.27;;
18159;SDS011;9205;52.032;4.314;2024-01-30T03:35:37;5.10;;;4.80;;
18159;SDS011;9205;52.032;4.314;2024-01-30T03:38:04;5.43;;;5.03;;
18159;SDS011;9205;52.032;4.314;2024-01-30T03:40:31;7.33;;;6.33;;
18159;SDS011;9205;52.032;4.314;2024-01-30T03:42:58;5.13;;;4.83;;
18159;SDS011;9205;52.032;4.314;2024-01-30T03:45:25;5.63;;;5.20;;
18159;SDS011;9205;52.032;4.314;2024-01-30T03:47:53;7.73;;;5.40;;
18159;SDS011;9205;52.032;4.314;2024-01-30T03:50:21;9.43;;;5.57;;
18159;SDS011;9205;52.032;4.314;2024-01-30T03:52:48;5.87;;;5.37;;
18159;SDS011;9205;52.032;4.314;2024-01-30T03:55:15;6.10;;;5.50;;
18159;SDS011;9205;52.032;4.314;2024-01-30T03:57:42;6.03;;;5.63;;
18159;SDS011;9205;52.032;4.314;2024-01-30T04:00:10;5.60;;;5.17;;
18159;SDS011;9205;52.032;4.314;2024-01-30T04:02:39;5.70;;;5.27;;
18159;SDS011;9205;52.032;4.314;2024-01-30T04:05:07;6.77;;;5.53;;
18159;SDS011;9205;52.032;4.314;2024-01-30T04:07:36;6.37;;;5.87;;
18159;SDS011;9205;52.032;4.314;2024-01-30T04:10:03;6.07;;;5.53;;
18159;SDS011;9205;52.032;4.314;2024-01-30T04:12:31;5.50;;;5.20;;
18159;SDS011;9205;52.032;4.314;2024-01-30T04:14:59;5.50;;;5.20;;
18159;SDS011;9205;52.032;4.314;2024-01-30T04:17:26;5.23;;;4.97;;
18159;SDS011;9205;52.032;4.314;2024-01-30T04:19:54;5.83;;;5.43;;
18159;SDS011;9205;52.032;4.314;2024-01-30T04:22:21;6.23;;;5.67;;
18159;SDS011;9205;52.032;4.314;2024-01-30T04:24:49;9.67;;;5.43;;
18159;SDS011;9205;52.032;4.314;2024-01-30T04:27:17;6.00;;;5.70;;
18159;SDS011;9205;52.032;4.314;2024-01-30T04:29:44;5.80;;;5.40;;
18159;SDS011;9205;52.032;4.314;2024-01-30T04:32:11;6.40;;;5.80;;
18159;SDS011;9205;52.032;4.314;2024-01-30T04:34:38;6.13;;;5.63;;
18159;SDS011;9205;52.032;4.314;2024-01-30T04:37:04;6.10;;;5.70;;
18159;SDS011;9205;52.032;4.314;2024-01-30T04:39:32;5.97;;;5.57;;
18159;SDS011;9205;52.032;4.314;2024-01-30T04:42:01;6.03;;;5.70;;
18159;SDS011;9205;52.032;4.314;2024-01-30T04:44:28;5.77;;;5.37;;
18159;SDS011;9205;52.032;4.314;2024-01-30T04:46:55;6.20;;;5.70;;
18159;SDS011;9205;52.032;4.314;2024-01-30T04:49:24;5.87;;;5.53;;
18159;SDS011;9205;52.032;4.314;2024-01-30T04:51:51;5.20;;;4.93;;
18159;SDS011;9205;52.032;4.314;2024-01-30T04:54:18;5.67;;;5.23;;
18159;SDS011;9205;52.032;4.314;2024-01-30T04:56:45;5.50;;;5.20;;
18159;SDS011;9205;52.032;4.314;2024-01-30T04:59:14;6.80;;;5.20;;
18159;SDS011;9205;52.032;4.314;2024-01-30T05:01:41;5.00;;;4.80;;
18159;SDS011;9205;52.032;4.314;2024-01-30T05:04:08;6.20;;;5.70;;
18159;SDS011;9205;52.032;4.314;2024-01-30T05:06:36;5.50;;;5.20;;
18159;SDS011;9205;52.032;4.314;2024-01-30T05:09:03;6.07;;;5.67;;
18159;SDS011;9205;52.032;4.314;2024-01-30T05:11:30;6.40;;;5.83;;
18159;SDS011;9205;52.032;4.314;2024-01-30T05:14:02;5.73;;;5.40;;
18159;SDS011;9205;52.032;4.314;2024-01-30T05:16:31;6.40;;;6.00;;
18159;SDS011;9205;52.032;4.314;2024-01-30T05:18:58;5.50;;;5.20;;
18159;SDS011;9205;52.032;4.314;2024-01-30T05:21:25;6.20;;;5.80;;
18159;SDS011;9205;52.032;4.314;2024-01-30T05:23:53;5.60;;;5.30;;
18159;SDS011;9205;52.032;4.314;2024-01-30T05:26:20;5.40;;;5.10;;
18159;SDS011;9205;52.032;4.314;2024-01-30T05:28:48;6.47;;;5.97;;
18159;SDS011;9205;52.032;4.314;2024-01-30T05:31:15;5.73;;;5.40;;
18159;SDS011;9205;52.032;4.314;2024-01-30T05:33:43;5.47;;;5.17;;
18159;SDS011;9205;52.032;4.314;2024-01-30T05:36:11;6.07;;;5.67;;
18159;SDS011;9205;52.032;4.314;2024-01-30T05:38:39;5.33;;;5.00;;
18159;SDS011;9205;52.032;4.314;2024-01-30T05:41:06;5.97;;;5.50;;
18159;SDS011;9205;52.032;4.314;2024-01-30T05:43:34;5.80;;;5.40;;
18159;SDS011;9205;52.032;4.314;2024-01-30T05:46:01;7.07;;;5.27;;
18159;SDS011;9205;52.032;4.314;2024-01-30T05:48:29;6.33;;;5.80;;
18159;SDS011;9205;52.032;4.314;2024-01-30T05:50:58;5.17;;;4.90;;
18159;SDS011;9205;52.032;4.314;2024-01-30T05:53:25;6.10;;;5.70;;
18159;SDS011;9205;52.032;4.314;2024-01-30T05:55:53;6.43;;;6.03;;
18159;SDS011;9205;52.032;4.314;2024-01-30T05:58:20;7.10;;;6.53;;
18159;SDS011;9205;52.032;4.314;2024-01-30T06:00:47;5.87;;;5.47;;
18159;SDS011;9205;52.032;4.314;2024-01-30T06:03:14;6.80;;;5.67;;
18159;SDS011;9205;52.032;4.314;2024-01-30T06:05:41;5.23;;;4.90;;
18159;SDS011;9205;52.032;4.314;2024-01-30T06:08:10;9.03;;;4.90;;
18159;SDS011;9205;52.032;4.314;2024-01-30T06:10:37;5.17;;;4.87;;
18159;SDS011;9205;52.032;4.314;2024-01-30T06:13:04;5.30;;;5.00;;
18159;SDS011;9205;52.032;4.314;2024-01-30T06:15:31;5.33;;;5.03;;
18159;SDS011;9205;52.032;4.314;2024-01-30T06:17:58;7.23;;;6.40;;
18159;SDS011;9205;52.032;4.314;2024-01-30T06:20:26;7.37;;;6.00;;
18159;SDS011;9205;52.032;4.314;2024-01-30T06:22:53;8.37;;;5.63;;
18159;SDS011;9205;52.032;4.314;2024-01-30T06:25:22;6.20;;;5.60;;
18159;SDS011;9205;52.032;4.314;2024-01-30T06:27:49;5.97;;;5.47;;
18159;SDS011;9205;52.032;4.314;2024-01-30T06:30:16;6.13;;;5.63;;
18159;SDS011;9205;52.032;4.314;2024-01-30T06:32:43;5.80;;;5.40;;
18159;SDS011;9205;52.032;4.314;2024-01-30T06:35:11;6.53;;;6.07;;
18159;SDS011;9205;52.032;4.314;2024-01-30T06:37:38;5.83;;;5.33;;
18159;SDS011;9205;52.032;4.314;2024-01-30T06:40:06;5.93;;;5.43;;
18159;SDS011;9205;52.032;4.314;2024-01-30T06:42:35;5.80;;;5.47;;
18159;SDS011;9205;52.032;4.314;2024-01-30T06:45:03;6.07;;;5.50;;
18159;SDS011;9205;52.032;4.314;2024-01-30T06:47:31;6.00;;;5.50;;
18159;SDS011;9205;52.032;4.314;2024-01-30T06:49:58;6.23;;;5.73;;
18159;SDS011;9205;52.032;4.314;2024-01-30T06:52:27;5.30;;;4.90;;
18159;SDS011;9205;52.032;4.314;2024-01-30T06:54:54;5.80;;;5.40;;
18159;SDS011;9205;52.032;4.314;2024-01-30T06:57:21;6.43;;;5.93;;
18159;SDS011;9205;52.032;4.314;2024-01-30T06:59:50;5.97;;;5.57;;
18159;SDS011;9205;52.032;4.314;2024-01-30T07:02:20;6.83;;;6.33;;
18159;SDS011;9205;52.032;4.314;2024-01-30T07:04:47;6.10;;;5.70;;
18159;SDS011;9205;52.032;4.314;2024-01-30T07:07:14;5.90;;;5.40;;
18159;SDS011;9205;52.032;4.314;2024-01-30T07:09:42;5.63;;;5.23;;
18159;SDS011;9205;52.032;4.314;2024-01-30T07:12:09;5.77;;;5.40;;
18159;SDS011;9205;52.032;4.314;2024-01-30T07:14:37;6.20;;;5.77;;
18159;SDS011;9205;52.032;4.314;2024-01-30T07:17:05;6.10;;;5.70;;
18159;SDS011;9205;52.032;4.314;2024-01-30T07:19:32;6.13;;;5.73;;
18159;SDS011;9205;52.032;4.314;2024-01-30T07:22:00;6.67;;;6.10;;
18159;SDS011;9205;52.032;4.314;2024-01-30T07:24:27;6.03;;;5.53;;
18159;SDS011;9205;52.032;4.314;2024-01-30T07:26:54;6.17;;;5.77;;
18159;SDS011;9205;52.032;4.314;2024-01-30T07:29:22;6.33;;;5.93;;
18159;SDS011;9205;52.032;4.314;2024-01-30T07:31:49;6.20;;;5.80;;
18159;SDS011;9205;52.032;4.314;2024-01-30T07:34:18;7.83;;;6.13;;
18159;SDS011;9205;52.032;4.314;2024-01-30T07:36:45;5.93;;;5.47;;
18159;SDS011;9205;52.032;4.314;2024-01-30T07:39:12;6.53;;;5.90;;
18159;SDS011;9205;52.032;4.314;2024-01-30T07:41:39;6.43;;;6.03;;
18159;SDS011;9205;52.032;4.314;2024-01-30T07:44:06;6.20;;;5.60;;
18159;SDS011;9205;52.032;4.314;2024-01-30T07:46:33;6.73;;;6.23;;
18159;SDS011;9205;52.032;4.314;2024-01-30T07:49:01;6.20;;;5.83;;
18159;SDS011;9205;52.032;4.314;2024-01-30T07:51:29;6.60;;;6.10;;
18159;SDS011;9205;52.032;4.314;2024-01-30T07:53:58;6.07;;;5.57;;
18159;SDS011;9205;52.032;4.314;2024-01-30T07:56:25;6.33;;;5.93;;
18159;SDS011;9205;52.032;4.314;2024-01-30T07:58:52;6.53;;;6.03;;
18159;SDS011;9205;52.032;4.314;2024-01-30T08:01:19;5.90;;;5.40;;
18159;SDS011;9205;52.032;4.314;2024-01-30T08:03:46;6.40;;;5.90;;
18159;SDS011;9205;52.032;4.314;2024-01-30T08:06:13;6.73;;;6.13;;
18159;SDS011;9205;52.032;4.314;2024-01-30T08:08:42;6.00;;;5.50;;
18159;SDS011;9205;52.032;4.314;2024-01-30T08:11:09;6.70;;;6.10;;
18159;SDS011;9205;52.032;4.314;2024-01-30T08:13:36;6.70;;;6.00;;
18159;SDS011;9205;52.032;4.314;2024-01-30T08:16:03;9.17;;;6.03;;
18159;SDS011;9205;52.032;4.314;2024-01-30T08:18:32;6.03;;;5.63;;
18159;SDS011;9205;52.032;4.314;2024-01-30T08:20:59;6.37;;;5.97;;
18159;SDS011;9205;52.032;4.314;2024-01-30T08:23:26;6.03;;;5.63;;
18159;SDS011;9205;52.032;4.314;2024-01-30T08:25:55;6.23;;;5.83;;
18159;SDS011;9205;52.032;4.314;2024-01-30T08:28:22;6.00;;;5.60;;
18159;SDS011;9205;52.032;4.314;2024-01-30T08:30:51;8.13;;;5.80;;
18159;SDS011;9205;52.032;4.314;2024-01-30T08:33:18;5.77;;;5.43;;
18159;SDS011;9205;52.032;4.314;2024-01-30T08:35:46;6.00;;;5.60;;
18159;SDS011;9205;52.032;4.314;2024-01-30T08:38:13;6.10;;;5.70;;
18159;SDS011;9205;52.032;4.314;2024-01-30T08:40:40;6.00;;;5.60;;
18159;SDS011;9205;52.032;4.314;2024-01-30T08:43:09;6.50;;;6.03;;
18159;SDS011;9205;52.032;4.314;2024-01-30T08:45:38;5.90;;;5.50;;
18159;SDS011;9205;52.032;4.314;2024-01-30T08:48:05;5.83;;;5.53;;
18159;SDS011;9205;52.032;4.314;2024-01-30T08:50:34;5.53;;;5.23;;
18159;SDS011;9205;52.032;4.314;2024-01-30T08:53:01;5.60;;;5.23;;
18159;SDS011;9205;52.032;4.314;2024-01-30T08:55:29;6.37;;;5.90;;
18159;SDS011;9205;52.032;4.314;2024-01-30T08:57:57;6.77;;;6.27;;
18159;SDS011;9205;52.032;4.314;2024-01-30T09:00:26;6.43;;;5.83;;
18159;SDS011;9205;52.032;4.314;2024-01-30T09:02:55;6.10;;;5.70;;
18159;SDS011;9205;52.032;4.314;2024-01-30T09:05:22;6.43;;;6.03;;
18159;SDS011;9205;52.032;4.314;2024-01-30T09:07:50;6.17;;;5.73;;
18159;SDS011;9205;52.032;4.314;2024-01-30T09:10:17;6.13;;;5.63;;
18159;SDS011;9205;52.032;4.314;2024-01-30T09:12:45;6.07;;;5.67;;
18159;SDS011;9205;52.032;4.314;2024-01-30T09:15:13;6.20;;;5.80;;
18159;SDS011;9205;52.032;4.314;2024-01-30T09:17:42;6.93;;;6.23;;
18159;SDS011;9205;52.032;4.314;2024-01-30T09:20:10;5.90;;;5.50;;
18159;SDS011;9205;52.032;4.314;2024-01-30T09:22:38;7.83;;;6.37;;
18159;SDS011;9205;52.032;4.314;2024-01-30T09:25:06;7.83;;;5.87;;
18159;SDS011;9205;52.032;4.314;2024-01-30T09:27:34;5.17;;;4.97;;
18159;SDS011;9205;52.032;4.314;2024-01-30T09:30:01;4.80;;;4.60;;
18159;SDS011;9205;52.032;4.314;2024-01-30T09:32:29;5.60;;;5.20;;
18159;SDS011;9205;52.032;4.314;2024-01-30T09:34:59;4.80;;;4.60;;
18159;SDS011;9205;52.032;4.314;2024-01-30T09:37:26;5.13;;;4.83;;
18159;SDS011;9205;52.032;4.314;2024-01-30T09:39:54;4.90;;;4.70;;
18159;SDS011;9205;52.032;4.314;2024-01-30T09:42:26;5.40;;;4.97;;
18159;SDS011;9205;52.032;4.314;2024-01-30T09:45:00;5.50;;;5.00;;
18159;SDS011;9205;52.032;4.314;2024-01-30T09:47:30;5.67;;;5.37;;
18159;SDS011;9205;52.032;4.314;2024-01-30T09:50:00;4.83;;;4.57;;
18159;SDS011;9205;52.032;4.314;2024-01-30T09:52:31;4.67;;;4.47;;
18159;SDS011;9205;52.032;4.314;2024-01-30T09:54:59;4.80;;;4.60;;
18159;SDS011;9205;52.032;4.314;2024-01-30T09:57:27;4.87;;;4.63;;
18159;SDS011;9205;52.032;4.314;2024-01-30T09:59:55;4.40;;;4.20;;
18159;SDS011;9205;52.032;4.314;2024-01-30T10:02:22;4.57;;;4.37;;
18159;SDS011;9205;52.032;4.314;2024-01-30T10:04:50;4.50;;;4.30;;
18159;SDS011;9205;52.032;4.314;2024-01-30T10:07:20;4.60;;;4.40;;
18159;SDS011;9205;52.032;4.314;2024-01-30T10:09:48;4.60;;;4.40;;
18159;SDS011;9205;52.032;4.314;2024-01-30T10:12:20;4.90;;;4.60;;
18159;SDS011;9205;52.032;4.314;2024-01-30T10:14:48;5.23;;;4.93;;
18159;SDS011;9205;52.032;4.314;2024-01-30T10:17:16;5.47;;;4.97;;
18159;SDS011;9205;52.032;4.314;2024-01-30T10:19:46;4.60;;;4.17;;
18159;SDS011;9205;52.032;4.314;2024-01-30T10:22:14;3.90;;;3.70;;
18159;SDS011;9205;52.032;4.314;2024-01-30T10:24:44;3.87;;;3.70;;
18159;SDS011;9205;52.032;4.314;2024-01-30T10:27:11;4.27;;;4.07;;
18159;SDS011;9205;52.032;4.314;2024-01-30T10:29:39;4.23;;;4.03;;
18159;SDS011;9205;52.032;4.314;2024-01-30T10:32:06;3.90;;;3.70;;
18159;SDS011;9205;52.032;4.314;2024-01-30T10:34:34;4.03;;;3.83;;
18159;SDS011;9205;52.032;4.314;2024-01-30T10:37:06;4.33;;;4.10;;
18159;SDS011;9205;52.032;4.314;2024-01-30T10:39:38;4.07;;;3.87;;
18159;SDS011;9205;52.032;4.314;2024-01-30T10:42:10;4.00;;;3.80;;
18159;SDS011;9205;52.032;4.314;2024-01-30T10:44:44;3.90;;;3.70;;
18159;SDS011;9205;52.032;4.314;2024-01-30T10:47:28;3.50;;;3.40;;
18159;SDS011;9205;52.032;4.314;2024-01-30T10:49:56;3.90;;;3.70;;
18159;SDS011;9205;52.032;4.314;2024-01-30T10:52:24;3.97;;;3.77;;
18159;SDS011;9205;52.032;4.314;2024-01-30T10:54:54;3.80;;;3.63;;
18159;SDS011;9205;52.032;4.314;2024-01-30T10:57:24;4.10;;;3.90;;
18159;SDS011;9205;52.032;4.314;2024-01-30T10:59:55;4.07;;;3.87;;
18159;SDS011;9205;52.032;4.314;2024-01-30T11:02:26;4.00;;;3.80;;
18159;SDS011;9205;52.032;4.314;2024-01-30T11:04:55;4.20;;;4.00;;
18159;SDS011;9205;52.032;4.314;2024-01-30T11:07:25;4.33;;;4.03;;
18159;SDS011;9205;52.032;4.314;2024-01-30T11:09:59;4.10;;;3.90;;
18159;SDS011;9205;52.032;4.314;2024-01-30T11:12:31;4.00;;;3.80;;
18159;SDS011;9205;52.032;4.314;2024-01-30T11:15:04;4.40;;;4.20;;
18159;SDS011;9205;52.032;4.314;2024-01-30T11:17:41;4.27;;;4.00;;
18159;SDS011;9205;52.032;4.314;2024-01-30T11:20:10;4.80;;;4.40;;
18159;SDS011;9205;52.032;4.314;2024-01-30T11:22:42;4.47;;;4.27;;
18159;SDS011;9205;52.032;4.314;2024-01-30T11:25:13;4.40;;;4.20;;
18159;SDS011;9205;52.032;4.314;2024-01-30T11:27:43;4.80;;;4.40;;
18159;SDS011;9205;52.032;4.314;2024-01-30T11:30:20;4.20;;;4.00;;
18159;SDS011;9205;52.032;4.314;2024-01-30T11:33:02;4.77;;;4.57;;
18159;SDS011;9205;52.032;4.314;2024-01-30T11:35:32;4.50;;;4.30;;
18159;SDS011;9205;52.032;4.314;2024-01-30T11:38:20;7.80;;;4.60;;
18159;SDS011;9205;52.032;4.314;2024-01-30T11:40:49;4.50;;;4.30;;
18159;SDS011;9205;52.032;4.314;2024-01-30T11:43:21;4.83;;;4.60;;
18159;SDS011;9205;52.032;4.314;2024-01-30T11:45:48;6.23;;;5.43;;
18159;SDS011;9205;52.032;4.314;2024-01-30T11:48:17;4.80;;;4.57;;
18159;SDS011;9205;52.032;4.314;2024-01-30T11:50:45;4.63;;;4.33;;
18159;SDS011;9205;52.032;4.314;2024-01-30T11:53:13;6.37;;;4.60;;
18159;SDS011;9205;52.032;4.314;2024-01-30T11:55:40;4.50;;;4.30;;
18159;SDS011;9205;52.032;4.314;2024-01-30T11:58:09;4.50;;;4.30;;
18159;SDS011;9205;52.032;4.314;2024-01-30T12:00:54;14.43;;;4.83;;
18159;SDS011;9205;52.032;4.314;2024-01-30T12:03:22;5.00;;;4.80;;
18159;SDS011;9205;52.032;4.314;2024-01-30T12:05:54;5.00;;;4.60;;
18159;SDS011;9205;52.032;4.314;2024-01-30T12:08:24;4.67;;;4.47;;
18159;SDS011;9205;52.032;4.314;2024-01-30T12:10:56;4.80;;;4.60;;
18159;SDS011;9205;52.032;4.314;2024-01-30T12:13:24;5.87;;;5.23;;
18159;SDS011;9205;52.032;4.314;2024-01-30T12:15:52;4.83;;;4.63;;
18159;SDS011;9205;52.032;4.314;2024-01-30T12:18:21;4.57;;;4.37;;
18159;SDS011;9205;52.032;4.314;2024-01-30T12:20:58;7.33;;;5.27;;
18159;SDS011;9205;52.032;4.314;2024-01-30T12:23:26;4.90;;;4.70;;
18159;SDS011;9205;52.032;4.314;2024-01-30T12:25:54;5.00;;;4.80;;
18159;SDS011;9205;52.032;4.314;2024-01-30T12:28:24;4.80;;;4.60;;
18159;SDS011;9205;52.032;4.314;2024-01-30T12:31:00;5.93;;;4.93;;
18159;SDS011;9205;52.032;4.314;2024-01-30T12:33:36;4.67;;;4.47;;
18159;SDS011;9205;52.032;4.314;2024-01-30T12:36:03;6.07;;;5.03;;
18159;SDS011;9205;52.032;4.314;2024-01-30T12:38:32;6.07;;;5.47;;
18159;SDS011;9205;52.032;4.314;2024-01-30T12:41:00;4.60;;;4.40;;
18159;SDS011;9205;52.032;4.314;2024-01-30T12:43:31;4.60;;;4.40;;
18159;SDS011;9205;52.032;4.314;2024-01-30T12:46:03;4.77;;;4.47;;
18159;SDS011;9205;52.032;4.314;2024-01-30T12:48:32;4.67;;;4.47;;
18159;SDS011;9205;52.032;4.314;2024-01-30T12:51:00;4.60;;;4.40;;
18159;SDS011;9205;52.032;4.314;2024-01-30T12:53:27;4.30;;;4.10;;
18159;SDS011;9205;52.032;4.314;2024-01-30T12:55:55;4.30;;;4.00;;
18159;SDS011;9205;52.032;4.314;2024-01-30T12:58:23;3.87;;;3.67;;
18159;SDS011;9205;52.032;4.314;2024-01-30T13:00:51;3.83;;;3.63;;
18159;SDS011;9205;52.032;4.314;2024-01-30T13:03:23;5.10;;;3.83;;
18159;SDS011;9205;52.032;4.314;2024-01-30T13:05:50;4.63;;;4.23;;
18159;SDS011;9205;52.032;4.314;2024-01-30T13:08:18;3.70;;;3.50;;
18159;SDS011;9205;52.032;4.314;2024-01-30T13:10:46;3.60;;;3.40;;
18159;SDS011;9205;52.032;4.314;2024-01-30T13:13:13;3.30;;;3.20;;
18159;SDS011;9205;52.032;4.314;2024-01-30T13:15:44;4.33;;;3.57;;
18159;SDS011;9205;52.032;4.314;2024-01-30T13:18:15;3.03;;;2.93;;
18159;SDS011;9205;52.032;4.314;2024-01-30T13:20:44;3.10;;;3.00;;
18159;SDS011;9205;52.032;4.314;2024-01-30T13:23:12;4.33;;;3.93;;
18159;SDS011;9205;52.032;4.314;2024-01-30T13:25:42;3.20;;;3.10;;
18159;SDS011;9205;52.032;4.314;2024-01-30T13:28:10;4.00;;;3.57;;
18159;SDS011;9205;52.032;4.314;2024-01-30T13:30:38;3.20;;;3.00;;
18159;SDS011;9205;52.032;4.314;2024-01-30T13:33:05;3.20;;;3.00;;
18159;SDS011;9205;52.032;4.314;2024-01-30T13:35:33;2.90;;;2.80;;
18159;SDS011;9205;52.032;4.314;2024-01-30T13:38:07;2.93;;;2.83;;
18159;SDS011;9205;52.032;4.314;2024-01-30T13:40:35;10.97;;;3.20;;
18159;SDS011;9205;52.032;4.314;2024-01-30T13:43:05;3.00;;;2.90;;
18159;SDS011;9205;52.032;4.314;2024-01-30T13:45:33;3.07;;;2.97;;
18159;SDS011;9205;52.032;4.314;2024-01-30T13:48:01;3.30;;;3.10;;
18159;SDS011;9205;52.032;4.314;2024-01-30T13:50:29;3.20;;;3.10;;
18159;SDS011;9205;52.032;4.314;2024-01-30T13:53:02;2.80;;;2.70;;
18159;SDS011;9205;52.032;4.314;2024-01-30T13:55:32;3.10;;;3.00;;
18159;SDS011;9205;52.032;4.314;2024-01-30T13:58:01;3.60;;;3.30;;
18159;SDS011;9205;52.032;4.314;2024-01-30T14:00:29;3.00;;;2.90;;
18159;SDS011;9205;52.032;4.314;2024-01-30T14:02:57;3.27;;;3.07;;
18159;SDS011;9205;52.032;4.314;2024-01-30T14:05:27;3.00;;;2.90;;
18159;SDS011;9205;52.032;4.314;2024-01-30T14:08:09;2.90;;;2.80;;
18159;SDS011;9205;52.032;4.314;2024-01-30T14:10:45;3.00;;;2.90;;
18159;SDS011;9205;52.032;4.314;2024-01-30T14:13:12;3.10;;;2.90;;
18159;SDS011;9205;52.032;4.314;2024-01-30T14:15:40;7.20;;;3.40;;
18159;SDS011;9205;52.032;4.314;2024-01-30T14:18:07;3.30;;;3.17;;
18159;SDS011;9205;52.032;4.314;2024-01-30T14:20:36;3.20;;;3.10;;
18159;SDS011;9205;52.032;4.314;2024-01-30T14:23:06;2.90;;;2.80;;
18159;SDS011;9205;52.032;4.314;2024-01-30T14:25:35;2.77;;;2.67;;
18159;SDS011;9205;52.032;4.314;2024-01-30T14:28:10;2.80;;;2.70;;
18159;SDS011;9205;52.032;4.314;2024-01-30T14:30:42;3.10;;;2.90;;
18159;SDS011;9205;52.032;4.314;2024-01-30T14:33:10;5.23;;;3.03;;
18159;SDS011;9205;52.032;4.314;2024-01-30T14:35:54;2.80;;;2.70;;
18159;SDS011;9205;52.032;4.314;2024-01-30T14:38:22;2.90;;;2.80;;
18159;SDS011;9205;52.032;4.314;2024-01-30T14:43:37;2.97;;;2.87;;
18159;SDS011;9205;52.032;4.314;2024-01-30T14:46:05;2.70;;;2.60;;
18159;SDS011;9205;52.032;4.314;2024-01-30T14:48:34;3.20;;;3.00;;
18159;SDS011;9205;52.032;4.314;2024-01-30T14:51:08;2.97;;;2.87;;
18159;SDS011;9205;52.032;4.314;2024-01-30T14:57:13;2.80;;;2.70;;
18159;SDS011;9205;52.032;4.314;2024-01-30T14:59:55;3.10;;;2.90;;
18159;SDS011;9205;52.032;4.314;2024-01-30T15:02:31;3.10;;;3.00;;
18159;SDS011;9205;52.032;4.314;2024-01-30T15:05:04;2.93;;;2.80;;
18159;SDS011;9205;52.032;4.314;2024-01-30T15:07:32;3.40;;;3.20;;
18159;SDS011;9205;52.032;4.314;2024-01-30T15:10:09;2.87;;;2.73;;
18159;SDS011;9205;52.032;4.314;2024-01-30T15:12:55;2.90;;;2.80;;
18159;SDS011;9205;52.032;4.314;2024-01-30T15:15:25;2.90;;;2.70;;
18159;SDS011;9205;52.032;4.314;2024-01-30T15:17:53;3.60;;;3.07;;